Time;durP1;ratioP1;P1;durP2;ratioP2;P2;SDS_P1;SDS_P2;PMS_P1;PMS_P2;Temp;Humidity;BMP_temperature;BMP_pressure;BME280_temperature;BME280_humidity;BME280_pressure;Samples;Min_cycle;Max_cycle;Signal;HPM_P1;HPM_P2
2021/05/26 00:01:33;;;;;;;4.80;3.42;;;;;;;;;;5070770;28;20438;-81
2021/05/26 00:03:59;;;;;;;5.93;3.90;;;;;;;;;;5087324;28;20028;-81
2021/05/26 00:06:27;;;;;;;6.65;4.05;;;;;;;;;;5058547;28;20196;-80
2021/05/26 00:08:53;;;;;;;6.97;3.55;;;;;;;;;;5058353;28;20033;-81
2021/05/26 00:11:20;;;;;;;5.40;4.22;;;;;;;;;;5088583;28;20515;-81
2021/05/26 00:13:47;;;;;;;4.18;3.38;;;;;;;;;;5068426;28;20048;-79
2021/05/26 00:16:14;;;;;;;4.75;3.70;;;;;;;;;;5076952;28;20099;-81
2021/05/26 00:18:42;;;;;;;8.60;4.50;;;;;;;;;;5084433;28;20034;-81
2021/05/26 00:21:09;;;;;;;6.40;4.25;;;;;;;;;;5095620;28;20035;-80
2021/05/26 00:23:36;;;;;;;6.03;3.90;;;;;;;;;;5075545;28;20040;-81
2021/05/26 00:26:02;;;;;;;4.93;4.13;;;;;;;;;;5076142;28;20056;-81
2021/05/26 00:28:29;;;;;;;8.15;3.95;;;;;;;;;;5075819;28;20021;-80
2021/05/26 00:30:58;;;;;;;7.75;4.13;;;;;;;;;;5058697;28;20025;-81
2021/05/26 00:33:27;;;;;;;4.65;3.55;;;;;;;;;;5075381;28;20473;-80
2021/05/26 00:35:53;;;;;;;6.88;3.80;;;;;;;;;;5091881;28;20038;-80
2021/05/26 00:38:20;;;;;;;4.88;3.80;;;;;;;;;;5076362;28;20031;-80
2021/05/26 00:40:47;;;;;;;5.47;3.80;;;;;;;;;;5093399;28;20016;-82
2021/05/26 00:43:15;;;;;;;4.65;3.78;;;;;;;;;;5095233;28;20020;-81
2021/05/26 00:45:42;;;;;;;7.22;3.88;;;;;;;;;;5098432;28;20086;-81
2021/05/26 00:48:08;;;;;;;4.95;3.55;;;;;;;;;;5059296;28;20036;-82
2021/05/26 00:50:36;;;;;;;4.90;3.40;;;;;;;;;;5095719;28;20085;-82
2021/05/26 00:53:07;;;;;;;5.45;3.95;;;;;;;;;;5078447;28;20032;-80
2021/05/26 00:55:34;;;;;;;8.30;3.72;;;;;;;;;;5075514;28;20366;-80
2021/05/26 00:58:01;;;;;;;4.75;3.50;;;;;;;;;;5094006;28;20024;-81
2021/05/26 01:00:29;;;;;;;4.75;3.50;;;;;;;;;;5091660;28;20070;-80
2021/05/26 01:02:55;;;;;;;4.50;3.28;;;;;;;;;;5081334;28;20624;-80
2021/05/26 01:05:23;;;;;;;6.47;3.95;;;;;;;;;;5095112;28;20020;-79
2021/05/26 01:07:51;;;;;;;6.05;4.10;;;;;;;;;;5076944;28;20028;-80
2021/05/26 01:10:18;;;;;;;5.38;3.65;;;;;;;;;;5075453;28;20024;-79
2021/05/26 01:12:45;;;;;;;5.82;4.10;;;;;;;;;;5088617;28;20056;-80
2021/05/26 01:15:12;;;;;;;5.78;4.18;;;;;;;;;;5094352;28;20089;-80
2021/05/26 01:17:38;;;;;;;5.47;3.28;;;;;;;;;;5076830;28;20119;-80
2021/05/26 01:20:05;;;;;;;5.03;3.92;;;;;;;;;;5064921;28;20035;-81
2021/05/26 01:22:31;;;;;;;5.97;4.10;;;;;;;;;;5054245;28;20044;-80
2021/05/26 01:24:58;;;;;;;7.43;4.43;;;;;;;;;;5072940;28;20493;-82
2021/05/26 01:27:25;;;;;;;5.38;3.97;;;;;;;;;;5072678;28;20036;-81
2021/05/26 01:29:51;;;;;;;5.90;4.45;;;;;;;;;;5074647;28;20060;-79
2021/05/26 01:32:18;;;;;;;6.13;5.00;;;;;;;;;;5072498;28;20040;-80
2021/05/26 01:34:45;;;;;;;8.07;4.85;;;;;;;;;;5068461;28;20037;-81
2021/05/26 01:37:11;;;;;;;7.10;4.95;;;;;;;;;;5073162;28;20078;-81
2021/05/26 01:39:38;;;;;;;6.40;4.50;;;;;;;;;;5058670;28;20036;-81
2021/05/26 01:42:04;;;;;;;5.88;4.22;;;;;;;;;;5064163;28;20115;-80
2021/05/26 01:44:34;;;;;;;6.65;5.00;;;;;;;;;;5072545;28;20035;-81
2021/05/26 01:47:01;;;;;;;7.35;5.43;;;;;;;;;;5071331;28;20033;-81
2021/05/26 01:49:28;;;;;;;7.63;5.35;;;;;;;;;;5061873;28;20504;-82
2021/05/26 01:51:55;;;;;;;7.25;5.43;;;;;;;;;;5063427;28;20128;-80
2021/05/26 01:54:21;;;;;;;7.60;5.55;;;;;;;;;;5072336;28;20020;-80
2021/05/26 01:56:47;;;;;;;6.95;5.20;;;;;;;;;;5067200;28;20055;-82
2021/05/26 01:59:14;;;;;;;8.60;5.70;;;;;;;;;;5052980;28;20471;-82
2021/05/26 02:01:41;;;;;;;7.65;5.68;;;;;;;;;;5057673;28;20052;-82
2021/05/26 02:04:08;;;;;;;9.02;5.85;;;;;;;;;;5063720;28;20033;-80
2021/05/26 02:06:34;;;;;;;8.40;5.35;;;;;;;;;;5070960;28;20052;-80
2021/05/26 02:09:02;;;;;;;7.35;5.68;;;;;;;;;;5069830;28;20025;-80
2021/05/26 02:14:14;;;;;;;8.50;6.50;;;;;;;;;;5065677;28;20031;-82
2021/05/26 02:16:41;;;;;;;7.90;5.80;;;;;;;;;;5067505;28;20112;-77
2021/05/26 02:19:09;;;;;;;7.47;6.10;;;;;;;;;;5059135;28;20025;-82
2021/05/26 02:21:35;;;;;;;7.65;6.10;;;;;;;;;;5058156;28;20024;-82
2021/05/26 02:24:02;;;;;;;8.43;6.28;;;;;;;;;;5070397;28;20044;-81
2021/05/26 02:26:28;;;;;;;8.75;6.57;;;;;;;;;;5072095;28;20474;-80
2021/05/26 02:28:55;;;;;;;9.48;7.15;;;;;;;;;;5070993;28;20036;-85
2021/05/26 02:31:22;;;;;;;10.13;7.05;;;;;;;;;;5066296;28;20020;-84
2021/05/26 02:33:48;;;;;;;11.15;7.95;;;;;;;;;;5053114;28;20212;-81
2021/05/26 02:36:14;;;;;;;9.75;7.35;;;;;;;;;;5053940;28;20029;-84
2021/05/26 02:38:41;;;;;;;10.20;8.10;;;;;;;;;;5068082;28;20043;-80
2021/05/26 02:41:10;;;;;;;9.57;7.93;;;;;;;;;;5061086;28;20024;-83
2021/05/26 02:43:38;;;;;;;11.07;7.90;;;;;;;;;;5061137;28;20032;-83
2021/05/26 02:46:05;;;;;;;12.85;8.68;;;;;;;;;;5072248;28;20021;-80
2021/05/26 02:48:32;;;;;;;9.75;7.60;;;;;;;;;;5071626;28;20029;-86
2021/05/26 02:50:58;;;;;;;10.10;8.52;;;;;;;;;;5070244;28;20052;-87
2021/05/26 02:53:25;;;;;;;10.90;7.85;;;;;;;;;;5053162;28;20025;-81
2021/05/26 02:55:51;;;;;;;14.55;7.90;;;;;;;;;;5072497;28;20028;-82
2021/05/26 02:58:19;;;;;;;12.30;8.02;;;;;;;;;;5072525;28;20059;-83
2021/05/26 03:00:45;;;;;;;13.10;8.63;;;;;;;;;;5072093;28;20028;-83
2021/05/26 03:03:11;;;;;;;11.95;9.05;;;;;;;;;;5060403;28;20035;-79
2021/05/26 03:05:38;;;;;;;14.30;9.55;;;;;;;;;;5087435;28;20493;-81
2021/05/26 03:08:04;;;;;;;16.00;9.85;;;;;;;;;;5088239;28;20030;-81
2021/05/26 03:10:31;;;;;;;17.02;9.65;;;;;;;;;;5085918;28;20083;-80
2021/05/26 03:12:57;;;;;;;13.95;9.63;;;;;;;;;;5091803;28;20036;-80
2021/05/26 03:15:24;;;;;;;13.85;9.15;;;;;;;;;;5092843;28;20126;-80
2021/05/26 03:17:50;;;;;;;14.30;9.18;;;;;;;;;;5081788;28;20063;-82
2021/05/26 03:20:17;;;;;;;16.02;9.90;;;;;;;;;;5077088;28;20031;-80
2021/05/26 03:22:43;;;;;;;13.10;9.40;;;;;;;;;;5088405;28;20051;-81
2021/05/26 03:25:10;;;;;;;12.48;10.02;;;;;;;;;;5091915;28;20028;-80
2021/05/26 03:27:38;;;;;;;14.32;9.30;;;;;;;;;;5094111;28;20024;-81
2021/05/26 03:30:05;;;;;;;12.02;9.25;;;;;;;;;;5090705;28;20027;-82
2021/05/26 03:32:32;;;;;;;15.90;10.25;;;;;;;;;;5105566;28;20027;-81
2021/05/26 03:34:58;;;;;;;16.27;9.63;;;;;;;;;;5093263;28;20020;-81
2021/05/26 03:37:25;;;;;;;14.32;10.38;;;;;;;;;;5111560;28;20031;-81
2021/05/26 03:39:51;;;;;;;16.95;10.77;;;;;;;;;;5098679;28;20063;-81
2021/05/26 03:42:17;;;;;;;16.42;8.95;;;;;;;;;;5111580;28;20081;-81
2021/05/26 03:44:44;;;;;;;11.13;8.60;;;;;;;;;;5092960;28;20030;-82
2021/05/26 03:47:10;;;;;;;14.63;9.10;;;;;;;;;;5111546;28;20030;-82
2021/05/26 03:49:37;;;;;;;14.23;9.77;;;;;;;;;;5103280;28;20111;-81
2021/05/26 03:52:06;;;;;;;15.40;9.13;;;;;;;;;;5080089;28;20032;-81
2021/05/26 03:54:34;;;;;;;11.43;7.22;;;;;;;;;;5089958;28;20072;-81
2021/05/26 03:57:01;;;;;;;12.23;7.18;;;;;;;;;;5112152;28;20026;-81
2021/05/26 03:59:28;;;;;;;11.40;6.93;;;;;;;;;;5094293;28;20157;-81
2021/05/26 04:01:55;;;;;;;10.70;6.78;;;;;;;;;;5087362;28;20027;-81
2021/05/26 04:04:21;;;;;;;10.23;6.72;;;;;;;;;;5089818;28;20469;-82
2021/05/26 04:06:47;;;;;;;10.18;7.68;;;;;;;;;;5094214;28;20031;-79
2021/05/26 04:09:14;;;;;;;10.38;6.88;;;;;;;;;;5112293;28;20026;-81
2021/05/26 04:11:41;;;;;;;10.18;7.30;;;;;;;;;;5111693;28;20066;-82
2021/05/26 04:14:08;;;;;;;9.18;6.80;;;;;;;;;;5111170;28;20430;-82
2021/05/26 04:16:34;;;;;;;11.63;6.63;;;;;;;;;;5111129;28;20095;-81
2021/05/26 04:19:01;;;;;;;11.23;6.70;;;;;;;;;;5089983;28;20020;-80
2021/05/26 04:21:27;;;;;;;8.00;6.38;;;;;;;;;;5108962;28;20020;-80
2021/05/26 04:23:55;;;;;;;11.77;6.78;;;;;;;;;;5084041;28;20048;-81
2021/05/26 04:26:22;;;;;;;13.07;6.47;;;;;;;;;;5091491;28;20020;-80
2021/05/26 04:28:49;;;;;;;11.10;6.57;;;;;;;;;;5109372;28;20049;-80
2021/05/26 04:31:16;;;;;;;9.73;6.22;;;;;;;;;;5106742;28;20055;-81
2021/05/26 04:33:42;;;;;;;13.25;6.75;;;;;;;;;;5108174;28;20043;-80
2021/05/26 04:36:09;;;;;;;8.88;5.93;;;;;;;;;;5112945;28;20068;-80
2021/05/26 04:38:35;;;;;;;9.88;6.55;;;;;;;;;;5105619;28;20028;-80
2021/05/26 04:41:02;;;;;;;10.98;6.75;;;;;;;;;;5083227;28;20020;-80
2021/05/26 04:43:28;;;;;;;8.88;6.20;;;;;;;;;;5110102;28;20041;-80
2021/05/26 04:45:55;;;;;;;9.75;6.38;;;;;;;;;;5105840;28;20020;-80
2021/05/26 04:48:23;;;;;;;12.52;6.70;;;;;;;;;;5109953;28;20024;-81
2021/05/26 04:50:49;;;;;;;7.32;5.78;;;;;;;;;;5110062;28;20084;-81
2021/05/26 04:53:16;;;;;;;10.10;6.07;;;;;;;;;;5100510;28;20032;-80
2021/05/26 04:55:42;;;;;;;7.53;5.75;;;;;;;;;;5094822;28;20024;-81
2021/05/26 04:58:11;;;;;;;10.55;5.55;;;;;;;;;;5089514;28;20037;-81
2021/05/26 05:00:38;;;;;;;7.40;5.40;;;;;;;;;;5083799;28;20051;-80
2021/05/26 05:03:04;;;;;;;8.45;4.95;;;;;;;;;;5082627;28;20024;-82
2021/05/26 05:05:32;;;;;;;9.02;5.03;;;;;;;;;;5057120;28;20048;-80
2021/05/26 05:08:06;;;;;;;8.98;5.28;;;;;;;;;;5058353;28;20078;-82
2021/05/26 05:10:34;;;;;;;12.07;6.13;;;;;;;;;;5057304;28;20504;-81
2021/05/26 05:13:00;;;;;;;10.27;6.90;;;;;;;;;;5081597;28;20031;-81
2021/05/26 05:15:27;;;;;;;6.78;4.85;;;;;;;;;;5096144;28;20034;-79
2021/05/26 05:17:53;;;;;;;9.38;5.45;;;;;;;;;;5091920;28;20036;-82
2021/05/26 05:20:20;;;;;;;10.65;5.45;;;;;;;;;;5077511;28;20237;-84
2021/05/26 05:22:50;;;;;;;6.50;4.28;;;;;;;;;;5081108;28;20032;-83
2021/05/26 05:25:17;;;;;;;7.93;4.90;;;;;;;;;;5077414;28;20020;-82
2021/05/26 05:27:43;;;;;;;12.57;5.15;;;;;;;;;;5094705;28;20040;-83
2021/05/26 05:30:09;;;;;;;6.80;4.65;;;;;;;;;;5076655;28;20058;-82
2021/05/26 05:32:36;;;;;;;6.90;4.63;;;;;;;;;;5076733;28;20035;-81
2021/05/26 05:35:03;;;;;;;9.55;4.78;;;;;;;;;;5076858;28;20020;-82
2021/05/26 05:37:30;;;;;;;8.82;4.40;;;;;;;;;;5093806;28;20028;-82
2021/05/26 05:39:57;;;;;;;8.27;4.15;;;;;;;;;;5064839;28;20031;-82
2021/05/26 05:42:24;;;;;;;7.63;4.18;;;;;;;;;;5062484;28;20429;-83
2021/05/26 05:44:52;;;;;;;6.53;4.40;;;;;;;;;;5074173;28;20065;-82
2021/05/26 05:47:18;;;;;;;7.13;4.45;;;;;;;;;;5072397;28;20138;-82
2021/05/26 05:49:45;;;;;;;11.90;4.10;;;;;;;;;;5056233;28;20547;-84
2021/05/26 05:52:11;;;;;;;9.05;4.00;;;;;;;;;;5065593;28;20032;-82
2021/05/26 05:54:38;;;;;;;5.95;3.45;;;;;;;;;;5104531;28;20024;-84
2021/05/26 05:57:05;;;;;;;5.38;3.92;;;;;;;;;;5095690;28;20031;-82
2021/05/26 05:59:32;;;;;;;6.28;3.80;;;;;;;;;;5092291;28;20438;-79
2021/05/26 06:01:59;;;;;;;5.70;3.38;;;;;;;;;;5090466;28;20020;-82
2021/05/26 06:04:25;;;;;;;6.60;3.17;;;;;;;;;;5105601;28;20023;-80
2021/05/26 06:06:53;;;;;;;9.07;4.20;;;;;;;;;;5106285;28;20027;-80
2021/05/26 06:09:20;;;;;;;7.22;4.00;;;;;;;;;;5088325;28;20160;-81
2021/05/26 06:11:48;;;;;;;5.82;3.75;;;;;;;;;;5095127;28;20107;-82
2021/05/26 06:14:18;;;;;;;6.60;3.38;;;;;;;;;;5113914;28;20020;-82
2021/05/26 06:16:46;;;;;;;7.72;3.00;;;;;;;;;;5087435;28;20020;-80
2021/05/26 06:19:12;;;;;;;9.65;3.15;;;;;;;;;;5106141;28;20028;-81
2021/05/26 06:21:39;;;;;;;9.55;3.70;;;;;;;;;;5074033;28;20465;-83
2021/05/26 06:24:06;;;;;;;12.43;2.88;;;;;;;;;;5071791;28;20449;-82
2021/05/26 06:26:33;;;;;;;3.60;2.40;;;;;;;;;;5094155;28;20020;-83
2021/05/26 06:29:02;;;;;;;6.57;2.78;;;;;;;;;;5074328;28;20533;-82
2021/05/26 06:31:28;;;;;;;5.82;2.97;;;;;;;;;;5108358;28;20493;-79
2021/05/26 06:33:54;;;;;;;5.65;3.13;;;;;;;;;;5101490;28;20500;-78
2021/05/26 06:36:21;;;;;;;5.97;2.97;;;;;;;;;;5109973;28;20480;-79
2021/05/26 06:38:47;;;;;;;4.95;2.75;;;;;;;;;;5106123;28;20028;-81
2021/05/26 06:41:33;;;;;;;3.35;2.90;;;;;;;;;;5066092;28;20028;-82
2021/05/26 06:43:59;;;;;;;5.93;3.47;;;;;;;;;;5073782;28;20035;-84
2021/05/26 06:46:26;;;;;;;7.85;3.55;;;;;;;;;;5076022;28;20484;-84
2021/05/26 06:48:55;;;;;;;7.47;3.10;;;;;;;;;;5071270;28;20115;-85
2021/05/26 06:51:22;;;;;;;4.55;3.10;;;;;;;;;;5089675;28;20126;-85
2021/05/26 06:53:48;;;;;;;7.80;3.22;;;;;;;;;;5095774;28;20031;-84
2021/05/26 06:56:16;;;;;;;6.97;2.55;;;;;;;;;;5093195;28;20369;-82
2021/05/26 06:58:42;;;;;;;5.20;3.10;;;;;;;;;;5095019;28;20067;-82
2021/05/26 07:01:09;;;;;;;5.65;2.95;;;;;;;;;;5090071;28;20476;-83
2021/05/26 07:03:35;;;;;;;6.13;3.80;;;;;;;;;;5088396;28;20032;-81
2021/05/26 07:06:01;;;;;;;7.05;3.95;;;;;;;;;;5070643;28;20021;-83
2021/05/26 07:08:29;;;;;;;4.53;3.33;;;;;;;;;;5110750;28;20038;-83
2021/05/26 07:10:55;;;;;;;6.30;3.40;;;;;;;;;;5087825;28;20119;-85
2021/05/26 07:13:21;;;;;;;6.63;3.92;;;;;;;;;;5084602;28;20393;-83
2021/05/26 07:18:52;;;;;;;10.32;4.60;;;;;;;;;;5086673;28;20050;-86
2021/05/26 07:21:23;;;;;;;5.30;4.22;;;;;;;;;;5084113;28;20023;-88
2021/05/26 07:23:49;;;;;;;6.55;4.60;;;;;;;;;;5097733;28;20044;-88
2021/05/26 07:26:16;;;;;;;6.80;4.80;;;;;;;;;;5089216;28;20043;-83
2021/05/26 07:28:43;;;;;;;10.32;4.72;;;;;;;;;;5108689;28;20023;-80
2021/05/26 07:31:09;;;;;;;8.73;5.25;;;;;;;;;;5090358;28;20039;-77
2021/05/26 07:33:36;;;;;;;7.50;4.85;;;;;;;;;;5086912;28;20378;-83
2021/05/26 07:36:02;;;;;;;11.13;4.90;;;;;;;;;;5084396;28;20427;-86
2021/05/26 07:38:29;;;;;;;6.40;4.15;;;;;;;;;;5113206;28;20106;-84
2021/05/26 07:40:55;;;;;;;4.20;2.80;;;;;;;;;;5081901;28;20039;-87
2021/05/26 07:43:22;;;;;;;5.03;3.22;;;;;;;;;;5107887;28;20096;-77
2021/05/26 07:45:49;;;;;;;5.65;3.22;;;;;;;;;;5108995;28;20015;-78
2021/05/26 07:48:16;;;;;;;6.20;3.35;;;;;;;;;;5093632;28;20024;-78
2021/05/26 07:50:44;;;;;;;3.35;2.63;;;;;;;;;;5093673;28;20024;-79
2021/05/26 07:53:10;;;;;;;4.63;2.70;;;;;;;;;;5112220;28;20020;-78
2021/05/26 07:55:36;;;;;;;4.13;2.65;;;;;;;;;;5107026;28;20069;-77
2021/05/26 07:58:03;;;;;;;4.80;2.20;;;;;;;;;;5094027;28;20104;-77
2021/05/26 08:00:29;;;;;;;2.55;2.05;;;;;;;;;;5112401;28;20158;-78
2021/05/26 08:02:56;;;;;;;3.38;2.20;;;;;;;;;;5112819;28;20057;-83
2021/05/26 08:05:23;;;;;;;4.18;2.13;;;;;;;;;;5087483;28;20481;-86
2021/05/26 08:07:51;;;;;;;2.70;1.70;;;;;;;;;;5096113;28;20118;-82
2021/05/26 08:10:17;;;;;;;3.50;1.90;;;;;;;;;;5098181;28;20381;-83
2021/05/26 08:12:44;;;;;;;6.07;2.22;;;;;;;;;;5099281;28;20106;-82
2021/05/26 08:15:13;;;;;;;3.90;2.15;;;;;;;;;;5097831;28;20019;-83
2021/05/26 08:17:39;;;;;;;4.43;2.40;;;;;;;;;;5087561;28;20027;-78
2021/05/26 08:20:05;;;;;;;5.65;2.90;;;;;;;;;;5094185;28;20012;-79
2021/05/26 08:22:32;;;;;;;3.00;2.70;;;;;;;;;;5091485;28;20035;-82
2021/05/26 08:25:00;;;;;;;4.32;2.58;;;;;;;;;;5094359;28;20107;-85
2021/05/26 08:27:26;;;;;;;6.72;2.40;;;;;;;;;;5095849;28;20145;-83
2021/05/26 08:30:00;;;;;;;3.58;2.45;;;;;;;;;;5095979;28;20024;-86
2021/05/26 08:32:27;;;;;;;4.15;2.50;;;;;;;;;;5091662;28;20092;-83
2021/05/26 08:34:55;;;;;;;4.32;2.63;;;;;;;;;;5094384;28;20055;-81
2021/05/26 08:37:21;;;;;;;6.35;3.55;;;;;;;;;;5095817;28;20020;-82
2021/05/26 08:39:48;;;;;;;7.38;3.90;;;;;;;;;;5094648;28;20017;-78
2021/05/26 08:42:18;;;;;;;7.00;4.10;;;;;;;;;;5094432;28;20056;-77
2021/05/26 08:44:45;;;;;;;4.90;3.40;;;;;;;;;;5093680;28;20031;-79
2021/05/26 08:47:16;;;;;;;3.42;3.13;;;;;;;;;;5089923;28;20020;-80
2021/05/26 08:49:49;;;;;;;7.13;3.45;;;;;;;;;;5089786;28;20016;-83
2021/05/26 08:52:16;;;;;;;6.95;3.90;;;;;;;;;;5094741;28;20077;-80
2021/05/26 08:54:45;;;;;;;4.50;4.03;;;;;;;;;;5093669;28;20477;-89
2021/05/26 08:57:12;;;;;;;10.02;5.60;;;;;;;;;;5078152;28;20098;-87
2021/05/26 08:59:40;;;;;;;6.65;5.70;;;;;;;;;;5096360;28;20016;-87
2021/05/26 09:02:18;;;;;;;10.50;5.57;;;;;;;;;;5095546;28;20059;-87
2021/05/26 09:04:50;;;;;;;8.98;7.07;;;;;;;;;;5064489;28;20021;-84
2021/05/26 09:07:18;;;;;;;9.02;7.28;;;;;;;;;;5087217;28;20028;-86
2021/05/26 09:09:52;;;;;;;10.45;7.30;;;;;;;;;;5083955;28;20024;-84
2021/05/26 09:12:29;;;;;;;10.40;7.20;;;;;;;;;;5079796;28;20069;-86
2021/05/26 09:14:56;;;;;;;8.63;6.70;;;;;;;;;;5058626;28;20557;-86
2021/05/26 09:17:28;;;;;;;11.18;7.25;;;;;;;;;;5093709;28;20101;-77
2021/05/26 09:20:09;;;;;;;10.40;7.22;;;;;;;;;;5092618;28;20020;-80
2021/05/26 09:22:35;;;;;;;10.07;6.22;;;;;;;;;;5099739;28;20090;-76
2021/05/26 09:25:08;;;;;;;8.00;6.82;;;;;;;;;;5111201;28;20461;-76
2021/05/26 09:27:34;;;;;;;13.35;8.40;;;;;;;;;;5095859;28;20027;-76
2021/05/26 09:30:01;;;;;;;14.23;10.27;;;;;;;;;;5114240;28;20055;-76
2021/05/26 09:32:30;;;;;;;16.55;9.95;;;;;;;;;;5114072;28;20096;-76
2021/05/26 09:34:59;;;;;;;15.82;12.13;;;;;;;;;;5093312;28;20069;-76
2021/05/26 09:37:29;;;;;;;20.90;12.48;;;;;;;;;;5113875;28;20019;-76
2021/05/26 09:40:06;;;;;;;15.70;10.15;;;;;;;;;;5113977;28;20095;-77
2021/05/26 09:42:37;;;;;;;13.57;9.80;;;;;;;;;;5095948;28;20051;-76
2021/05/26 09:45:10;;;;;;;16.17;8.45;;;;;;;;;;5093060;28;20023;-76
2021/05/26 09:47:36;;;;;;;12.85;8.68;;;;;;;;;;5095792;28;20500;-75
2021/05/26 09:50:15;;;;;;;16.10;9.27;;;;;;;;;;5114403;28;20484;-76
2021/05/26 09:52:58;;;;;;;13.23;7.38;;;;;;;;;;5110067;28;20103;-76
2021/05/26 09:55:46;;;;;;;10.73;6.70;;;;;;;;;;5108186;28;20358;-80
2021/05/26 09:58:16;;;;;;;13.80;6.82;;;;;;;;;;5086718;28;20366;-80
2021/05/26 10:00:44;;;;;;;17.23;7.78;;;;;;;;;;5111098;28;20501;-80
2021/05/26 10:03:10;;;;;;;11.57;7.13;;;;;;;;;;5094065;28;20051;-79
2021/05/26 10:05:37;;;;;;;8.68;5.22;;;;;;;;;;5111060;28;20018;-82
2021/05/26 10:08:12;;;;;;;14.15;4.70;;;;;;;;;;5091204;28;20036;-79
2021/05/26 10:10:40;;;;;;;13.27;4.90;;;;;;;;;;5092180;28;20019;-80
2021/05/26 10:13:06;;;;;;;9.93;5.10;;;;;;;;;;5113128;28;20384;-77
2021/05/26 10:15:34;;;;;;;13.55;5.90;;;;;;;;;;5089974;28;20027;-77
2021/05/26 10:18:03;;;;;;;8.18;4.13;;;;;;;;;;5093501;28;20484;-91
2021/05/26 10:20:40;;;;;;;8.32;4.50;;;;;;;;;;5114121;28;20461;-79
2021/05/26 10:23:08;;;;;;;8.60;4.30;;;;;;;;;;5110416;28;20040;-78
2021/05/26 10:25:42;;;;;;;11.48;4.72;;;;;;;;;;5085417;28;20111;-75
2021/05/26 10:28:24;;;;;;;6.35;3.90;;;;;;;;;;5109953;28;20027;-75
2021/05/26 10:30:50;;;;;;;5.30;2.95;;;;;;;;;;5104484;28;20028;-78
2021/05/26 10:33:17;;;;;;;39.83;12.50;;;;;;;;;;5106616;28;20442;-78
2021/05/26 10:36:00;;;;;;;7.13;2.95;;;;;;;;;;5110629;28;20100;-79
2021/05/26 10:38:27;;;;;;;4.97;2.50;;;;;;;;;;5091944;28;20473;-77
2021/05/26 10:40:53;;;;;;;10.05;3.92;;;;;;;;;;5112504;28;20408;-74
2021/05/26 10:43:20;;;;;;;6.43;3.38;;;;;;;;;;5092173;28;20476;-79
2021/05/26 10:45:48;;;;;;;6.32;3.50;;;;;;;;;;5089587;28;20027;-82
2021/05/26 10:48:14;;;;;;;7.95;4.93;;;;;;;;;;5095207;28;20020;-80
2021/05/26 10:50:57;;;;;;;9.65;4.35;;;;;;;;;;5096200;28;20107;-84
2021/05/26 10:53:24;;;;;;;7.60;4.47;;;;;;;;;;5088985;28;20200;-84
2021/05/26 10:55:51;;;;;;;10.48;4.63;;;;;;;;;;5080431;28;20016;-82
2021/05/26 10:58:24;;;;;;;6.63;3.70;;;;;;;;;;5078278;28;20055;-82
2021/05/26 11:00:50;;;;;;;14.38;6.70;;;;;;;;;;5089599;28;20914;-74
2021/05/26 11:03:26;;;;;;;12.60;4.95;;;;;;;;;;5106126;28;20451;-70
2021/05/26 11:05:53;;;;;;;8.25;3.88;;;;;;;;;;5105499;28;20038;-71
2021/05/26 11:08:34;;;;;;;28.60;7.78;;;;;;;;;;5103400;28;20073;-76
2021/05/26 11:11:21;;;;;;;25.02;6.85;;;;;;;;;;5096850;28;20024;-72
2021/05/26 11:16:51;;;;;;;6.78;2.30;;;;;;;;;;5092979;28;20126;-70
2021/05/26 11:19:22;;;;;;;7.13;2.40;;;;;;;;;;5111249;28;20085;-70
2021/05/26 11:22:01;;;;;;;4.15;2.08;;;;;;;;;;5111249;28;20016;-71
2021/05/26 11:24:29;;;;;;;3.42;1.80;;;;;;;;;;5065932;28;20037;-70
2021/05/26 11:26:56;;;;;;;5.97;1.90;;;;;;;;;;5070395;28;20013;-72
2021/05/26 11:29:28;;;;;;;5.05;1.60;;;;;;;;;;5070746;28;20066;-72
2021/05/26 11:32:11;;;;;;;4.20;1.27;;;;;;;;;;5067728;28;20016;-72
2021/05/26 11:34:38;;;;;;;5.38;1.65;;;;;;;;;;5069714;28;20096;-72
2021/05/26 11:37:05;;;;;;;3.75;1.92;;;;;;;;;;5071570;28;20019;-72
2021/05/26 11:39:34;;;;;;;4.22;2.20;;;;;;;;;;5071517;28;20458;-71
2021/05/26 11:42:17;;;;;;;3.58;1.90;;;;;;;;;;5067756;28;20016;-70
2021/05/26 11:44:54;;;;;;;5.38;2.38;;;;;;;;;;5070342;28;20051;-71
2021/05/26 11:47:34;;;;;;;4.85;2.97;;;;;;;;;;5070380;28;20031;-71
2021/05/26 11:50:01;;;;;;;3.78;2.65;;;;;;;;;;5068571;28;20078;-70
2021/05/26 11:52:27;;;;;;;5.72;3.50;;;;;;;;;;5075595;28;20073;-71
2021/05/26 11:54:56;;;;;;;6.05;3.75;;;;;;;;;;5075156;28;20028;-72
2021/05/26 11:57:43;;;;;;;7.88;4.50;;;;;;;;;;5075319;28;20351;-73
2021/05/26 12:00:11;;;;;;;6.40;2.90;;;;;;;;;;5072669;28;20019;-73
2021/05/26 12:03:00;;;;;;;4.68;2.97;;;;;;;;;;5059625;28;20021;-72
2021/05/26 12:05:46;;;;;;;6.97;2.67;;;;;;;;;;5070423;28;20023;-70
2021/05/26 12:08:14;;;;;;;7.60;2.28;;;;;;;;;;5070582;28;20017;-70
2021/05/26 12:10:40;;;;;;;4.70;2.10;;;;;;;;;;5069528;28;20362;-73
2021/05/26 12:13:07;;;;;;;4.63;2.40;;;;;;;;;;5063861;28;20490;-69
2021/05/26 12:15:33;;;;;;;3.20;2.40;;;;;;;;;;5068690;28;20405;-69
2021/05/26 12:18:00;;;;;;;4.65;2.30;;;;;;;;;;5071562;28;20029;-69
2021/05/26 12:20:26;;;;;;;3.42;2.15;;;;;;;;;;5071790;28;20021;-71
2021/05/26 12:22:55;;;;;;;5.25;2.42;;;;;;;;;;5089724;28;20078;-72
2021/05/26 12:25:21;;;;;;;9.77;4.07;;;;;;;;;;5107015;28;20020;-72
2021/05/26 12:27:48;;;;;;;4.63;2.25;;;;;;;;;;5107703;28;20388;-71
2021/05/26 12:30:19;;;;;;;10.20;2.58;;;;;;;;;;5111545;28;20031;-71
2021/05/26 12:32:49;;;;;;;2.70;1.77;;;;;;;;;;5089020;28;20032;-71
2021/05/26 12:35:17;;;;;;;4.22;1.63;;;;;;;;;;5081912;28;20471;-71
2021/05/26 12:37:46;;;;;;;4.97;1.73;;;;;;;;;;5107337;28;20026;-70
2021/05/26 12:40:27;;;;;;;3.17;1.70;;;;;;;;;;5106282;28;20020;-72
2021/05/26 12:42:55;;;;;;;3.83;1.77;;;;;;;;;;5103209;28;20032;-70
2021/05/26 12:45:29;;;;;;;6.07;1.67;;;;;;;;;;5107750;28;20384;-71
2021/05/26 12:47:56;;;;;;;3.47;2.20;;;;;;;;;;5093718;28;20118;-70
2021/05/26 12:50:24;;;;;;;4.80;2.67;;;;;;;;;;5114339;28;20015;-70
2021/05/26 12:52:54;;;;;;;2.78;2.10;;;;;;;;;;5109893;28;20019;-71
2021/05/26 12:55:25;;;;;;;3.90;2.20;;;;;;;;;;5100193;28;20019;-71
2021/05/26 12:58:00;;;;;;;6.18;1.55;;;;;;;;;;5103203;28;20028;-71
2021/05/26 13:00:26;;;;;;;5.07;1.70;;;;;;;;;;5086393;28;20491;-71
2021/05/26 13:03:03;;;;;;;2.67;1.52;;;;;;;;;;5112775;28;20023;-69
2021/05/26 13:05:34;;;;;;;6.45;2.00;;;;;;;;;;5112190;28;20027;-70
2021/05/26 13:08:10;;;;;;;4.53;1.85;;;;;;;;;;5106363;28;20062;-71
2021/05/26 13:10:45;;;;;;;4.25;2.20;;;;;;;;;;5107464;28;20476;-69
2021/05/26 13:13:24;;;;;;;3.88;2.00;;;;;;;;;;5103869;28;20576;-70
2021/05/26 13:15:55;;;;;;;3.92;2.20;;;;;;;;;;5108092;28;20106;-69
2021/05/26 13:18:21;;;;;;;4.25;1.80;;;;;;;;;;5109483;28;20028;-70
2021/05/26 13:20:49;;;;;;;5.15;2.22;;;;;;;;;;5113797;28;20460;-69
2021/05/26 13:23:15;;;;;;;9.13;2.72;;;;;;;;;;5109525;28;20044;-70
2021/05/26 13:25:43;;;;;;;4.40;1.70;;;;;;;;;;5111667;28;20012;-71
2021/05/26 13:28:11;;;;;;;3.97;1.92;;;;;;;;;;5113422;28;20024;-69
2021/05/26 13:30:44;;;;;;;2.90;1.65;;;;;;;;;;5095448;28;20023;-71
2021/05/26 13:33:10;;;;;;;4.07;2.13;;;;;;;;;;5108322;28;20050;-70
2021/05/26 13:35:37;;;;;;;4.68;2.22;;;;;;;;;;5097839;28;20035;-70
2021/05/26 13:38:05;;;;;;;7.05;2.20;;;;;;;;;;5093696;28;20493;-69
2021/05/26 13:40:32;;;;;;;4.47;2.15;;;;;;;;;;5084679;28;20023;-68
2021/05/26 13:42:59;;;;;;;5.53;2.00;;;;;;;;;;5106544;28;20077;-69
2021/05/26 13:45:26;;;;;;;6.45;0.98;;;;;;;;;;5107449;28;20030;-69
2021/05/26 13:47:52;;;;;;;1.98;0.63;;;;;;;;;;5103565;28;20036;-69
2021/05/26 13:50:20;;;;;;;1.90;0.60;;;;;;;;;;5100585;28;20028;-68
2021/05/26 13:52:47;;;;;;;1.23;0.85;;;;;;;;;;5080715;28;20024;-70
2021/05/26 13:55:13;;;;;;;1.85;0.80;;;;;;;;;;5098388;28;20028;-69
2021/05/26 13:57:40;;;;;;;0.95;0.60;;;;;;;;;;5106057;28;20039;-70
2021/05/26 14:00:07;;;;;;;2.28;1.02;;;;;;;;;;5110495;28;20030;-69
2021/05/26 14:02:33;;;;;;;1.17;0.80;;;;;;;;;;5090364;28;20091;-71
2021/05/26 14:04:59;;;;;;;3.67;0.50;;;;;;;;;;5091584;28;20432;-70
2021/05/26 14:07:26;;;;;;;3.05;0.95;;;;;;;;;;5095485;28;20072;-69
2021/05/26 14:09:54;;;;;;;1.35;0.80;;;;;;;;;;5073355;28;20052;-70
2021/05/26 14:12:20;;;;;;;3.08;0.95;;;;;;;;;;5095036;28;20032;-71
2021/05/26 14:14:47;;;;;;;4.22;1.00;;;;;;;;;;5094877;28;20076;-72
2021/05/26 14:17:13;;;;;;;1.17;0.80;;;;;;;;;;5092756;28;20107;-71
2021/05/26 14:19:39;;;;;;;1.85;0.80;;;;;;;;;;5074835;28;20027;-71
2021/05/26 14:22:07;;;;;;;2.95;1.00;;;;;;;;;;5088029;28;20555;-70
2021/05/26 14:24:34;;;;;;;3.80;1.20;;;;;;;;;;5105846;28;20024;-71
2021/05/26 14:27:00;;;;;;;3.85;1.20;;;;;;;;;;5108567;28;20035;-71
2021/05/26 14:29:27;;;;;;;4.90;1.58;;;;;;;;;;5112122;28;20028;-71
2021/05/26 14:31:53;;;;;;;4.30;1.77;;;;;;;;;;5108390;28;20032;-70
2021/05/26 14:34:20;;;;;;;2.25;1.75;;;;;;;;;;5092042;28;20036;-72
2021/05/26 14:36:46;;;;;;;3.60;2.22;;;;;;;;;;5092365;28;20047;-69
2021/05/26 14:39:17;;;;;;;2.95;2.28;;;;;;;;;;5092786;28;20093;-69
2021/05/26 14:41:44;;;;;;;4.22;2.20;;;;;;;;;;5092753;28;20016;-68
2021/05/26 14:44:11;;;;;;;3.35;2.25;;;;;;;;;;5092643;28;20508;-69
2021/05/26 14:46:37;;;;;;;2.90;2.13;;;;;;;;;;5092543;28;20023;-69
2021/05/26 14:49:04;;;;;;;3.83;2.30;;;;;;;;;;5074262;28;20028;-68
2021/05/26 14:51:33;;;;;;;6.97;3.50;;;;;;;;;;5074351;28;20024;-69
2021/05/26 14:54:03;;;;;;;4.25;2.17;;;;;;;;;;5092170;28;20105;-70